createdAt,value
2022-08-07T00:02:35.238Z,67.09
2022-08-07T00:04:09.287Z,66.84
2022-08-07T00:06:41.062Z,66.70
2022-08-07T00:09:29.208Z,66.69
2022-08-07T00:12:05.856Z,66.64
2022-08-07T00:14:33.386Z,66.80
2022-08-07T00:17:02.417Z,67.21
2022-08-07T00:20:01.604Z,66.66
2022-08-07T00:22:24.769Z,66.54
2022-08-07T00:25:16.650Z,70.02
2022-08-07T00:27:52.609Z,72.16
2022-08-07T00:30:26.573Z,71.52
2022-08-07T00:32:59.731Z,71.13
2022-08-07T00:35:29.627Z,71.12
2022-08-07T00:37:59.663Z,70.32
2022-08-07T00:40:39.687Z,70.18
2022-08-07T00:43:10.545Z,70.17
2022-08-07T00:45:41.435Z,68.93
2022-08-07T00:48:14.296Z,68.44
2022-08-07T00:50:46.572Z,69.15
2022-08-07T00:53:20.435Z,69.53
2022-08-07T00:56:00.635Z,68.17
2022-08-07T00:58:32.669Z,70.46
2022-08-07T01:01:00.175Z,73.11
2022-08-07T01:03:56.343Z,71.88
2022-08-07T01:06:15.712Z,72.40
2022-08-07T01:08:53.520Z,72.35
2022-08-07T01:12:04.762Z,71.15
2022-08-07T01:14:10.623Z,70.77
2022-08-07T01:16:38.342Z,68.66
2022-08-07T01:19:14.837Z,68.20
2022-08-07T01:21:48.632Z,70.54
2022-08-07T01:24:18.684Z,70.65
2022-08-07T01:26:53.825Z,70.94
2022-08-07T01:29:27.979Z,70.32
2022-08-07T01:32:05.211Z,70.30
2022-08-07T01:34:33.647Z,70.19
2022-08-07T01:37:02.204Z,69.93
2022-08-07T01:39:40.469Z,69.42
2022-08-07T01:42:37.725Z,69.44
2022-08-07T01:44:57.734Z,69.29
2022-08-07T01:48:29.499Z,70.31
2022-08-07T01:50:14.105Z,70.25
2022-08-07T01:52:49.651Z,69.76
2022-08-07T01:55:26.653Z,69.45
2022-08-07T01:58:05.793Z,69.62
2022-08-07T02:00:35.820Z,69.88
2022-08-07T02:03:21.314Z,69.91
2022-08-07T02:05:59.655Z,69.46
2022-08-07T02:08:30.002Z,69.87
2022-08-07T02:10:59.718Z,69.85
2022-08-07T02:13:56.456Z,68.88
2022-08-07T02:16:19.932Z,69.87
2022-08-07T02:18:56.623Z,70.88
2022-08-07T02:21:26.696Z,69.63
2022-08-07T02:24:17.709Z,69.22
2022-08-07T02:26:46.312Z,71.99
2022-08-07T02:29:14.936Z,72.75
2022-08-07T02:31:50.166Z,71.66
2022-08-07T02:34:20.259Z,71.33
2022-08-07T02:36:49.636Z,70.89
2022-08-07T02:39:43.132Z,70.05
2022-08-07T02:42:10.174Z,71.94
2022-08-07T02:44:48.047Z,72.09
2022-08-07T02:47:23.526Z,70.63
2022-08-07T02:50:08.345Z,70.73
2022-08-07T02:52:48.862Z,69.93
2022-08-07T02:56:02.361Z,70.22
2022-08-07T02:58:22.217Z,70.86
2022-08-07T03:00:56.618Z,70.38
2022-08-07T03:03:29.455Z,71.91
2022-08-07T03:06:16.222Z,71.13
2022-08-07T03:08:44.981Z,71.55
2022-08-07T03:11:12.630Z,70.46
2022-08-07T03:13:49.413Z,71.21
2022-08-07T03:16:18.531Z,70.95
2022-08-07T03:18:51.282Z,71.29
2022-08-07T03:21:19.395Z,71.34
2022-08-07T03:24:20.754Z,70.86
2022-08-07T03:26:36.363Z,70.82
2022-08-07T03:29:19.162Z,70.25
2022-08-07T03:31:50.003Z,69.24
2022-08-07T03:34:22.128Z,69.41
2022-08-07T03:36:53.293Z,70.37
2022-08-07T03:39:46.571Z,70.27
2022-08-07T03:42:10.678Z,70.10
2022-08-07T03:44:41.836Z,69.90
2022-08-07T03:47:11.081Z,69.07
2022-08-07T03:49:40.458Z,69.44
2022-08-07T03:52:26.088Z,70.78
2022-08-07T03:55:06.756Z,70.37
2022-08-07T03:58:32.707Z,69.93
2022-08-07T04:00:30.286Z,69.54
2022-08-07T04:02:59.729Z,69.10
2022-08-07T04:05:40.754Z,69.52
2022-08-07T04:08:12.268Z,69.52
2022-08-07T04:10:42.244Z,70.34
2022-08-07T04:13:15.368Z,71.01
2022-08-07T04:15:43.693Z,70.78
2022-08-07T04:18:58.499Z,70.83
2022-08-07T04:21:03.075Z,70.12
2022-08-07T04:23:43.754Z,70.22
2022-08-07T04:26:25.161Z,70.50
2022-08-07T04:28:58.629Z,70.95
2022-08-07T04:31:39.100Z,71.27
2022-08-07T04:34:16.438Z,71.79
2022-08-07T04:36:45.233Z,71.51
2022-08-07T04:39:13.207Z,71.06
2022-08-07T04:41:50.277Z,69.50
2022-08-07T04:44:20.744Z,69.19
2022-08-07T04:47:03.946Z,68.77
2022-08-07T04:50:10.874Z,68.72
2022-08-07T04:53:09.334Z,70.43
2022-08-07T04:58:13.159Z,69.02
2022-08-07T04:59:16.900Z,70.05
2022-08-07T05:01:54.702Z,67.81
2022-08-07T05:04:33.566Z,66.71
2022-08-07T05:07:19.581Z,66.44
2022-08-07T05:10:01.311Z,66.16
2022-08-07T05:13:01.866Z,66.14
2022-08-07T05:15:53.500Z,65.60
2022-08-07T05:18:35.551Z,64.97
2022-08-07T05:21:12.682Z,65.08
2022-08-07T05:24:03.249Z,63.73
2022-08-07T05:26:33.897Z,64.20
2022-08-07T05:29:05.916Z,64.53
2022-08-07T05:31:39.790Z,65.60
2022-08-07T05:34:11.891Z,64.94
2022-08-07T05:36:42.318Z,65.27
2022-08-07T05:40:07.007Z,64.77
2022-08-07T05:42:03.001Z,64.72
2022-08-07T05:44:35.479Z,64.80
2022-08-07T05:47:18.315Z,65.26
2022-08-07T05:49:50.841Z,63.16
2022-08-07T05:52:20.757Z,63.59
2022-08-07T05:55:07.264Z,61.83
2022-08-07T05:57:42.259Z,61.91
2022-08-07T06:00:16.636Z,60.59
2022-08-07T06:02:51.031Z,60.22
2022-08-07T06:05:28.152Z,61.05
2022-08-07T06:08:29.818Z,62.08
2022-08-07T06:10:51.226Z,58.79
2022-08-07T06:13:20.926Z,58.58
2022-08-07T06:16:10.177Z,58.40
2022-08-07T06:18:51.735Z,56.51
2022-08-07T06:22:15.514Z,56.98
2022-08-07T06:24:45.495Z,55.52
2022-08-07T06:26:59.205Z,55.32
2022-08-07T06:29:32.123Z,52.89
2022-08-07T06:32:01.449Z,52.43
2022-08-07T06:34:29.809Z,54.62
2022-08-07T06:36:59.256Z,52.60
2022-08-07T06:40:16.246Z,53.18
2022-08-07T06:42:37.199Z,53.87
2022-08-07T06:45:11.276Z,52.30
2022-08-07T06:47:57.459Z,51.80
2022-08-07T06:50:27.429Z,53.36
2022-08-07T06:52:59.609Z,52.38
2022-08-07T06:55:53.442Z,53.05
2022-08-07T06:58:21.558Z,52.63
2022-08-07T07:00:53.288Z,52.14
2022-08-07T07:03:39.573Z,53.69
2022-08-07T07:06:10.975Z,51.47
2022-08-07T07:08:46.426Z,50.64
2022-08-07T07:12:09.096Z,51.64
2022-08-07T07:14:03.009Z,51.44
2022-08-07T07:16:34.357Z,52.14
2022-08-07T07:19:55.463Z,52.09
2022-08-07T07:22:04.972Z,52.68
2022-08-07T07:24:43.081Z,51.89
2022-08-07T07:27:25.564Z,52.75
2022-08-07T07:30:09.661Z,51.54
2022-08-07T07:32:40.587Z,51.67
2022-08-07T07:35:13.152Z,49.84
2022-08-07T07:37:47.296Z,50.01
2022-08-07T07:40:18.949Z,51.05
2022-08-07T07:42:54.191Z,49.48
2022-08-07T07:46:40.465Z,49.73
2022-08-07T07:48:34.724Z,48.54
2022-08-07T07:51:08.124Z,49.04
2022-08-07T07:53:51.357Z,49.83
2022-08-07T07:56:30.071Z,49.04
2022-08-07T07:59:06.197Z,49.27
2022-08-07T08:02:03.652Z,49.06
2022-08-07T08:04:25.827Z,49.54
2022-08-07T08:06:54.342Z,49.85
2022-08-07T08:09:24.495Z,49.38
2022-08-07T08:12:02.986Z,49.71
2022-08-07T08:14:36.417Z,47.25
2022-08-07T08:17:56.521Z,48.22
2022-08-07T08:20:17.523Z,49.35
2022-08-07T08:23:10.327Z,47.75
2022-08-07T08:25:58.230Z,47.77
2022-08-07T08:28:38.460Z,50.10
2022-08-07T08:31:15.901Z,52.20
2022-08-07T08:33:49.441Z,47.96
2022-08-07T08:36:29.669Z,48.13
2022-08-07T08:39:01.850Z,48.68
2022-08-07T08:41:57.064Z,48.32
2022-08-07T08:44:29.183Z,46.41
2022-08-07T08:47:09.872Z,45.23
2022-08-07T08:50:05.103Z,45.38
2022-08-07T08:52:53.758Z,46.03
2022-08-07T08:55:54.236Z,45.83
2022-08-07T08:58:36.108Z,46.46
2022-08-07T09:01:26.314Z,44.21
2022-08-07T09:04:03.877Z,45.61
2022-08-07T09:06:50.378Z,43.93
2022-08-07T09:09:42.278Z,43.13
2022-08-07T09:12:30.860Z,43.35
2022-08-07T09:16:24.534Z,42.40
2022-08-07T09:18:16.831Z,41.99
2022-08-07T09:20:58.335Z,40.15
2022-08-07T09:24:31.663Z,39.52
2022-08-07T09:26:33.751Z,39.81
2022-08-07T09:30:05.704Z,42.84
2022-08-07T09:32:48.403Z,40.29
2022-08-07T09:36:03.238Z,40.55
2022-08-07T09:38:31.911Z,40.09
2022-08-07T09:41:19.690Z,42.77
2022-08-07T09:44:05.829Z,42.55
2022-08-07T09:47:49.767Z,41.54
2022-08-07T09:50:00.760Z,42.83
2022-08-07T09:52:33.348Z,41.27
2022-08-07T09:55:17.056Z,40.56
2022-08-07T09:58:10.199Z,39.60
2022-08-07T10:00:59.978Z,38.53
2022-08-07T10:04:05.293Z,37.09
2022-08-07T10:06:38.272Z,39.07
2022-08-07T10:09:09.446Z,39.02
2022-08-07T10:12:00.627Z,38.80
2022-08-07T10:14:31.328Z,39.02
2022-08-07T10:17:17.408Z,40.15
2022-08-07T10:20:13.161Z,38.94
2022-08-07T10:22:50.905Z,38.92
2022-08-07T10:25:20.809Z,39.00
2022-08-07T10:27:57.495Z,38.95
2022-08-07T10:30:36.597Z,37.84
2022-08-07T10:33:08.865Z,38.00
2022-08-07T10:35:55.783Z,36.38
2022-08-07T10:38:41.384Z,37.04
2022-08-07T10:41:16.050Z,37.71
2022-08-07T10:44:19.473Z,35.50
2022-08-07T10:47:16.757Z,34.98
2022-08-07T10:50:18.804Z,35.76
2022-08-07T10:53:08.142Z,34.69
2022-08-07T10:55:50.441Z,35.07
2022-08-07T10:58:33.343Z,36.78
2022-08-07T11:01:15.111Z,36.88
2022-08-07T11:03:54.973Z,35.71
2022-08-07T11:06:40.496Z,36.85
2022-08-07T11:10:07.896Z,36.01
2022-08-07T11:12:12.181Z,36.17
2022-08-07T11:14:59.857Z,36.65
2022-08-07T11:17:45.075Z,36.51
2022-08-07T11:20:16.686Z,36.05
2022-08-07T11:22:51.973Z,35.04
2022-08-07T11:25:23.193Z,37.16
2022-08-07T11:28:01.143Z,37.33
2022-08-07T11:30:51.017Z,35.91
2022-08-07T11:33:53.831Z,34.38
2022-08-07T11:36:14.027Z,35.81
2022-08-07T11:38:54.702Z,35.07
2022-08-07T11:42:00.308Z,37.30
2022-08-07T11:44:36.752Z,36.88
2022-08-07T11:47:38.679Z,37.05
2022-08-07T11:50:30.307Z,36.95
2022-08-07T11:53:05.262Z,37.00
2022-08-07T11:56:15.754Z,37.51
2022-08-07T11:59:00.368Z,38.98
2022-08-07T12:02:00.666Z,36.06
2022-08-07T12:04:35.697Z,35.61
2022-08-07T12:07:20.583Z,36.64
2022-08-07T12:10:02.125Z,35.66
2022-08-07T12:12:37.199Z,36.06
2022-08-07T12:15:08.240Z,35.62
2022-08-07T12:17:59.377Z,36.67
2022-08-07T12:20:36.427Z,36.48
2022-08-07T12:23:37.125Z,35.64
2022-08-07T12:26:33.636Z,36.34
2022-08-07T12:29:03.965Z,36.32
2022-08-07T12:32:01.660Z,36.89
2022-08-07T12:34:32.766Z,35.08
2022-08-07T12:37:01.110Z,36.29
2022-08-07T12:39:43.026Z,36.17
2022-08-07T12:42:13.606Z,37.91
2022-08-07T12:44:46.254Z,37.31
2022-08-07T12:47:27.084Z,37.30
2022-08-07T12:50:39.564Z,37.39
2022-08-07T12:54:02.808Z,37.69
2022-08-07T12:56:30.151Z,37.50
2022-08-07T12:59:00.110Z,36.83
2022-08-07T13:01:45.411Z,36.89
2022-08-07T13:04:33.983Z,37.42
2022-08-07T13:08:12.494Z,37.34
2022-08-07T13:10:19.533Z,37.97
2022-08-07T13:13:11.046Z,38.29
2022-08-07T13:16:17.803Z,37.44
2022-08-07T13:19:04.354Z,37.60
2022-08-07T13:21:57.448Z,37.06
2022-08-07T13:24:37.576Z,37.19
2022-08-07T13:27:23.889Z,37.27
2022-08-07T13:30:19.582Z,36.81
2022-08-07T13:33:03.226Z,38.22
2022-08-07T13:36:01.099Z,35.78
2022-08-07T13:38:42.060Z,37.13
2022-08-07T13:41:31.296Z,37.38
2022-08-07T13:44:02.378Z,37.22
2022-08-07T13:46:38.849Z,38.06
2022-08-07T13:50:31.679Z,34.85
2022-08-07T13:52:27.077Z,36.91
2022-08-07T13:55:00.644Z,39.53
2022-08-07T13:57:37.667Z,50.06
2022-08-07T14:00:13.362Z,49.10
2022-08-07T14:02:57.146Z,60.87
2022-08-07T14:05:37.462Z,62.82
2022-08-07T14:08:07.986Z,63.53
2022-08-07T14:10:41.985Z,65.45
2022-08-07T14:13:17.011Z,65.85
2022-08-07T14:15:57.149Z,65.09
2022-08-07T14:18:30.413Z,64.74
2022-08-07T14:21:11.834Z,65.97
2022-08-07T14:24:04.242Z,62.72
2022-08-07T14:26:50.236Z,63.42
2022-08-07T14:30:06.157Z,62.99
2022-08-07T14:32:16.622Z,62.16
2022-08-07T14:34:47.941Z,64.08
2022-08-07T14:37:23.848Z,64.52
2022-08-07T14:40:15.848Z,66.31
2022-08-07T14:43:01.153Z,59.46
2022-08-07T14:45:51.767Z,62.01
2022-08-07T14:48:27.285Z,59.49
2022-08-07T14:51:02.969Z,58.35
2022-08-07T14:54:03.649Z,63.59
2022-08-07T14:59:13.708Z,54.67
2022-08-07T15:02:31.973Z,57.00
2022-08-07T15:05:01.754Z,56.81
2022-08-07T15:07:47.462Z,59.05
2022-08-07T15:10:20.263Z,61.36
2022-08-07T15:12:58.455Z,59.70
2022-08-07T15:15:38.436Z,61.44
2022-08-07T15:18:34.796Z,62.73
2022-08-07T15:25:13.284Z,65.47
2022-08-07T15:27:03.911Z,60.68
2022-08-07T15:30:09.565Z,59.41
2022-08-07T15:32:39.939Z,57.88
2022-08-07T15:35:18.360Z,53.41
2022-08-07T15:38:30.353Z,53.34
2022-08-07T15:41:22.815Z,51.84
2022-08-07T15:43:55.926Z,52.27
2022-08-07T15:46:31.246Z,53.42
2022-08-07T15:49:12.618Z,52.52
2022-08-07T15:54:45.958Z,50.02
2022-08-07T15:57:39.649Z,47.29
2022-08-07T16:00:08.565Z,44.14
2022-08-07T16:02:58.546Z,42.70
2022-08-07T16:05:31.207Z,41.30
2022-08-07T16:08:32.013Z,41.44
2022-08-07T16:11:26.472Z,39.96
2022-08-07T16:14:21.776Z,38.60
2022-08-07T16:16:49.850Z,40.60
2022-08-07T16:19:42.519Z,40.68
2022-08-07T16:22:31.958Z,44.61
2022-08-07T16:25:23.103Z,48.46
2022-08-07T16:30:09.075Z,52.10
2022-08-07T16:31:10.028Z,52.14
2022-08-07T16:34:03.122Z,47.64
2022-08-07T16:37:00.175Z,47.39
2022-08-07T16:39:49.083Z,46.52
2022-08-07T16:42:25.570Z,47.63
2022-08-07T16:45:14.730Z,45.77
2022-08-07T16:47:59.195Z,48.48
2022-08-07T16:51:21.681Z,48.49
2022-08-07T16:54:06.261Z,54.35
2022-08-07T16:56:56.788Z,54.04
2022-08-07T16:59:46.675Z,57.65
2022-08-07T17:02:28.390Z,55.83
2022-08-07T17:06:19.095Z,57.64
2022-08-07T17:08:19.442Z,59.01
2022-08-07T17:10:57.498Z,60.11
2022-08-07T17:13:40.321Z,58.98
2022-08-07T17:16:34.057Z,61.18
2022-08-07T17:19:04.743Z,62.00
2022-08-07T17:21:51.100Z,61.05
2022-08-07T17:24:29.363Z,62.32
2022-08-07T17:26:58.265Z,63.18
2022-08-07T17:30:16.159Z,62.31
2022-08-07T17:32:30.407Z,63.01
2022-08-07T17:35:55.269Z,62.22
2022-08-07T17:38:35.950Z,62.80
2022-08-07T17:42:03.755Z,62.86
2022-08-07T17:44:14.757Z,62.14
2022-08-07T17:46:58.944Z,64.04
2022-08-07T17:49:52.299Z,63.96
2022-08-07T17:52:30.590Z,65.53
2022-08-07T17:55:12.516Z,63.94
2022-08-07T17:57:59.121Z,65.06
2022-08-07T18:00:34.712Z,63.93
2022-08-07T18:03:21.070Z,63.77
2022-08-07T18:06:01.556Z,64.34
2022-08-07T18:08:33.086Z,64.24
2022-08-07T18:12:16.431Z,63.88
2022-08-07T18:14:25.278Z,64.24
2022-08-07T18:17:06.392Z,65.93
2022-08-07T18:21:07.068Z,67.67
2022-08-07T18:22:33.980Z,66.44
2022-08-07T18:25:24.143Z,68.59
2022-08-07T18:28:07.365Z,64.91
2022-08-07T18:30:50.021Z,66.01
2022-08-07T18:33:38.171Z,66.93
2022-08-07T18:36:06.127Z,67.22
2022-08-07T18:38:56.987Z,66.43
2022-08-07T18:41:44.639Z,67.87
2022-08-07T18:45:39.588Z,69.26
2022-08-07T18:47:44.588Z,69.42
2022-08-07T18:50:43.892Z,70.69
2022-08-07T18:53:14.054Z,68.72
2022-08-07T18:56:08.045Z,69.88
2022-08-07T18:58:59.328Z,70.55
2022-08-07T19:02:17.200Z,72.69
2022-08-07T19:05:10.100Z,71.53
2022-08-07T19:07:51.530Z,73.21
2022-08-07T19:10:31.317Z,74.16
2022-08-07T19:13:25.633Z,73.96
2022-08-07T19:17:04.110Z,76.70
2022-08-07T19:19:08.766Z,75.62
2022-08-07T19:21:55.884Z,75.17
2022-08-07T19:24:35.500Z,74.34
2022-08-07T19:28:57.515Z,75.28
2022-08-07T19:30:55.949Z,74.73
2022-08-07T19:32:46.450Z,76.11
2022-08-07T19:35:19.559Z,75.75
2022-08-07T19:37:56.517Z,76.41
2022-08-07T19:40:31.074Z,77.02
2022-08-07T19:43:02.410Z,77.00
2022-08-07T19:46:05.104Z,75.69
2022-08-07T19:48:24.264Z,76.47
2022-08-07T19:50:53.821Z,76.34
2022-08-07T19:54:32.104Z,75.75
2022-08-07T19:57:51.707Z,76.95
2022-08-07T19:59:02.962Z,77.12
2022-08-07T20:01:52.209Z,77.67
2022-08-07T20:04:31.608Z,77.66
2022-08-07T20:07:00.718Z,75.96
2022-08-07T20:10:33.949Z,77.08
2022-08-07T20:12:34.923Z,76.43
2022-08-07T20:15:18.986Z,76.82
2022-08-07T20:17:56.220Z,77.26
2022-08-07T20:20:34.072Z,77.85
2022-08-07T20:23:41.598Z,77.80
2022-08-07T20:26:11.657Z,78.04
2022-08-07T20:28:51.635Z,78.00
2022-08-07T20:31:26.245Z,77.83
2022-08-07T20:33:56.755Z,78.13
2022-08-07T20:36:30.005Z,78.20
2022-08-07T20:39:00.779Z,76.94
2022-08-07T20:41:48.396Z,77.78
2022-08-07T20:44:16.360Z,77.40
2022-08-07T20:46:46.806Z,77.33
2022-08-07T20:49:59.987Z,78.41
2022-08-07T20:52:29.979Z,78.51
2022-08-07T20:55:12.883Z,78.30
2022-08-07T20:57:47.516Z,77.31
2022-08-07T21:00:42.486Z,78.27
2022-08-07T21:03:12.535Z,77.36
2022-08-07T21:05:54.827Z,77.78
2022-08-07T21:08:36.581Z,77.22
2022-08-07T21:11:12.044Z,77.32
2022-08-07T21:14:20.276Z,77.64
2022-08-07T21:16:56.011Z,77.13
2022-08-07T21:19:32.546Z,76.92
2022-08-07T21:22:15.138Z,76.28
2022-08-07T21:25:12.835Z,75.45
2022-08-07T21:28:02.223Z,75.17
2022-08-07T21:30:35.289Z,76.40
2022-08-07T21:33:06.027Z,76.73
2022-08-07T21:36:05.651Z,76.09
2022-08-07T21:38:27.746Z,76.38
2022-08-07T21:40:55.256Z,77.12
2022-08-07T21:43:47.258Z,76.66
2022-08-07T21:46:25.082Z,75.91
2022-08-07T21:49:16.354Z,76.73
2022-08-07T21:51:51.677Z,77.87
2022-08-07T21:54:26.280Z,77.99
2022-08-07T21:57:06.988Z,78.41
2022-08-07T22:00:03.945Z,78.92
2022-08-07T22:02:50.526Z,79.51
2022-08-07T22:05:45.688Z,79.05
2022-08-07T22:08:10.403Z,78.71
2022-08-07T22:10:42.535Z,79.70
2022-08-07T22:13:13.811Z,79.44
2022-08-07T22:16:39.095Z,78.52
2022-08-07T22:19:00.959Z,78.06
2022-08-07T22:22:02.275Z,78.04
2022-08-07T22:24:32.619Z,77.71
2022-08-07T22:27:18.072Z,78.15
2022-08-07T22:29:52.460Z,77.79
2022-08-07T22:32:42.302Z,77.17
2022-08-07T22:35:11.616Z,77.00
2022-08-07T22:38:01.947Z,77.95
2022-08-07T22:40:35.613Z,77.91
2022-08-07T22:43:13.712Z,78.86
2022-08-07T22:46:40.724Z,79.79
2022-08-07T22:48:55.920Z,79.13
2022-08-07T22:51:44.211Z,78.90
2022-08-07T22:54:38.198Z,77.98
2022-08-07T22:57:16.954Z,77.64
2022-08-07T22:59:52.402Z,77.66
2022-08-07T23:02:38.558Z,77.68
2022-08-07T23:06:14.519Z,79.54
2022-08-07T23:07:54.098Z,79.02
2022-08-07T23:10:48.754Z,79.11
2022-08-07T23:13:48.793Z,78.82
2022-08-07T23:16:46.757Z,77.92
2022-08-07T23:19:48.188Z,78.60
2022-08-07T23:22:31.900Z,78.91
2022-08-07T23:25:18.341Z,78.82
2022-08-07T23:28:22.559Z,77.76
2022-08-07T23:30:45.772Z,77.98
2022-08-07T23:34:33.773Z,78.18
2022-08-07T23:36:43.155Z,78.76
2022-08-07T23:39:35.965Z,78.15
2022-08-07T23:42:08.208Z,78.93
2022-08-07T23:44:57.973Z,78.50
2022-08-07T23:47:52.286Z,78.05
2022-08-07T23:50:29.736Z,77.93
2022-08-07T23:53:08.369Z,77.28
2022-08-07T23:55:56.730Z,78.27
2022-08-07T23:58:34.986Z,77.76
